createdAt,value
2018-01-18T00:00:10.140Z,3.62
2018-01-18T00:01:09.687Z,3.66
2018-01-18T00:02:09.902Z,3.59
2018-01-18T00:03:10.341Z,3.58
2018-01-18T00:04:09.887Z,3.6
2018-01-18T00:05:10.162Z,3.63
2018-01-18T00:06:09.863Z,3.65
2018-01-18T00:07:09.623Z,3.63
2018-01-18T00:08:09.601Z,3.59
2018-01-18T00:09:09.839Z,3.6
2018-01-18T00:10:10.018Z,3.59
2018-01-18T00:11:09.836Z,3.59
2018-01-18T00:12:09.604Z,3.58
2018-01-18T00:13:09.305Z,3.6
2018-01-18T00:14:09.293Z,3.6
2018-01-18T00:15:10.403Z,3.59
2018-01-18T00:16:09.778Z,3.62
2018-01-18T00:17:09.765Z,3.63
2018-01-18T00:18:09.769Z,3.6
2018-01-18T00:19:09.762Z,3.65
2018-01-18T00:20:10.160Z,3.6
2018-01-18T00:21:09.481Z,3.45
2018-01-18T00:22:09.725Z,3.58
2018-01-18T00:23:09.754Z,3.53
2018-01-18T00:24:09.453Z,3.51
2018-01-18T00:25:09.992Z,3.51
2018-01-18T00:26:09.687Z,3.45
2018-01-18T00:27:09.681Z,3.44
2018-01-18T00:28:09.668Z,3.48
2018-01-18T00:29:09.659Z,3.51
2018-01-18T00:30:10.288Z,3.56
2018-01-18T00:31:09.656Z,3.51
2018-01-18T00:32:09.140Z,3.45
2018-01-18T00:33:09.373Z,3.47
2018-01-18T00:34:09.371Z,3.32
2018-01-18T00:35:10.012Z,3.41
2018-01-18T00:36:09.622Z,3.42
2018-01-18T00:37:09.082Z,3.25
2018-01-18T00:38:09.330Z,3.22
2018-01-18T00:39:09.319Z,3.29
2018-01-18T00:40:11.320Z,3.29
2018-01-18T00:41:09.060Z,3.26
2018-01-18T00:42:09.559Z,3.25
2018-01-18T00:43:09.296Z,3.28
2018-01-18T00:44:09.016Z,3.26
2018-01-18T00:45:09.942Z,3.26
2018-01-18T00:46:09.545Z,3.25
2018-01-18T00:47:09.240Z,3.25
2018-01-18T00:48:09.231Z,3.32
2018-01-18T00:49:09.487Z,3.25
2018-01-18T00:50:09.892Z,3.29
2018-01-18T00:51:09.460Z,3.32
2018-01-18T00:52:09.198Z,3.47
2018-01-18T00:53:09.448Z,3.5
2018-01-18T00:54:09.177Z,3.47
2018-01-18T00:55:09.486Z,3.47
2018-01-18T00:56:09.405Z,3.41
2018-01-18T00:57:09.395Z,3.5
2018-01-18T00:58:09.134Z,3.42
2018-01-18T00:59:09.132Z,3.53
2018-01-18T01:00:09.537Z,3.56
2018-01-18T01:01:09.362Z,3.45
2018-01-18T01:02:09.093Z,3.58
2018-01-18T01:03:08.840Z,3.65
2018-01-18T01:04:08.825Z,3.68
2018-01-18T01:05:09.211Z,3.8
2018-01-18T01:06:09.308Z,3.76
2018-01-18T01:07:09.302Z,3.84
2018-01-18T01:08:09.304Z,3.81
2018-01-18T01:09:09.032Z,3.92
2018-01-18T01:10:09.568Z,3.78
2018-01-18T01:11:09.264Z,3.84
2018-01-18T01:12:09.251Z,3.91
2018-01-18T01:13:09.242Z,3.95
2018-01-18T01:14:09.238Z,3.98
2018-01-18T01:15:09.661Z,4.01
2018-01-18T01:16:09.474Z,4.04
2018-01-18T01:17:09.226Z,4.06
2018-01-18T01:18:08.947Z,4.06
2018-01-18T01:19:09.189Z,4.04
2018-01-18T01:20:09.608Z,4.05
2018-01-18T01:21:08.915Z,4.12
2018-01-18T01:22:09.159Z,4.05
2018-01-18T01:23:08.647Z,4.12
2018-01-18T01:24:08.888Z,4.04
2018-01-18T01:25:09.215Z,4.1
2018-01-18T01:26:09.124Z,4.08
2018-01-18T01:27:08.870Z,4.12
2018-01-18T01:28:09.102Z,4.17
2018-01-18T01:29:09.106Z,4.13
2018-01-18T01:30:09.213Z,4.24
2018-01-18T01:31:08.837Z,4.17
2018-01-18T01:32:08.865Z,4.13
2018-01-18T01:33:08.807Z,4.17
2018-01-18T01:34:08.798Z,4.13
2018-01-18T01:35:09.138Z,4.23
2018-01-18T01:36:09.038Z,4.3
2018-01-18T01:37:09.034Z,4.28
2018-01-18T01:38:08.773Z,4.23
2018-01-18T01:39:08.766Z,4.28
2018-01-18T01:40:09.122Z,4.28
2018-01-18T01:41:09.000Z,4.28
2018-01-18T01:42:08.731Z,4.3
2018-01-18T01:43:08.970Z,4.26
2018-01-18T01:44:08.962Z,4.24
2018-01-18T01:45:09.347Z,4.23
2018-01-18T01:46:10.258Z,4.3
2018-01-18T01:47:08.694Z,4.26
2018-01-18T01:48:08.928Z,4.14
2018-01-18T01:49:08.669Z,4.19
2018-01-18T01:50:08.985Z,4.16
2018-01-18T01:51:08.652Z,4.2
2018-01-18T01:52:08.639Z,4.13
2018-01-18T01:53:08.885Z,4.1
2018-01-18T01:54:08.642Z,4.14
2018-01-18T01:55:09.184Z,4.13
2018-01-18T01:56:08.621Z,4.05
2018-01-18T01:57:08.857Z,4.2
2018-01-18T01:58:08.343Z,4.1
2018-01-18T01:59:08.589Z,4.16
2018-01-18T02:00:09.208Z,4.08
2018-01-18T02:01:08.813Z,4.05
2018-01-18T02:02:08.300Z,4.08
2018-01-18T02:03:08.293Z,4.14
2018-01-18T02:04:08.786Z,4.13
2018-01-18T02:05:08.754Z,4.12
2018-01-18T02:06:08.522Z,4.1
2018-01-18T02:07:08.508Z,4.13
2018-01-18T02:08:08.503Z,4.04
2018-01-18T02:09:08.753Z,4.16
2018-01-18T02:10:08.781Z,4.13
2018-01-18T02:11:08.475Z,4.1
2018-01-18T02:12:08.728Z,4.16
2018-01-18T02:13:08.471Z,4.14
2018-01-18T02:14:08.203Z,4.1
2018-01-18T02:15:09.053Z,4.05
2018-01-18T02:16:12.582Z,4.17
2018-01-18T02:17:08.447Z,4.08
2018-01-18T02:18:08.676Z,4.13
2018-01-18T02:19:08.667Z,4.08
2018-01-18T02:20:09.006Z,4.13
2018-01-18T02:21:08.635Z,4.14
2018-01-18T02:22:08.628Z,4.13
2018-01-18T02:23:08.618Z,4.16
2018-01-18T02:24:08.357Z,4.12
2018-01-18T02:25:08.279Z,4.14
2018-01-18T02:26:08.090Z,4.23
2018-01-18T02:27:08.590Z,4.19
2018-01-18T02:28:08.078Z,4.22
2018-01-18T02:29:08.401Z,4.16
2018-01-18T02:30:08.867Z,4.24
2018-01-18T02:31:08.568Z,4.22
2018-01-18T02:32:08.547Z,4.19
2018-01-18T02:33:08.296Z,4.17
2018-01-18T02:34:08.282Z,4.19
2018-01-18T02:35:08.491Z,4.17
2018-01-18T02:36:08.259Z,4.19
2018-01-18T02:37:08.512Z,4.14
2018-01-18T02:38:07.981Z,4.13
2018-01-18T02:39:08.496Z,4.17
2018-01-18T02:40:08.410Z,4.19
2018-01-18T02:41:08.477Z,4.24
2018-01-18T02:42:08.253Z,4.2
2018-01-18T02:43:07.948Z,4.22
2018-01-18T02:44:08.195Z,4.1
2018-01-18T02:45:08.785Z,4.14
2018-01-18T02:46:08.167Z,4.19
2018-01-18T02:47:08.426Z,4.16
2018-01-18T02:48:08.410Z,4.24
2018-01-18T02:49:07.892Z,4.2
2018-01-18T02:50:08.673Z,4.24
2018-01-18T02:51:08.376Z,4.16
2018-01-18T02:52:08.122Z,4.2
2018-01-18T02:53:08.358Z,4.22
2018-01-18T02:54:08.366Z,4.13
2018-01-18T02:55:07.977Z,4.16
2018-01-18T02:56:08.080Z,4.17
2018-01-18T02:57:08.070Z,4.19
2018-01-18T02:58:08.079Z,4.1
2018-01-18T02:59:08.306Z,4.19
2018-01-18T03:00:08.121Z,4.19
2018-01-18T03:01:08.284Z,4.24
2018-01-18T03:02:08.278Z,4.28
2018-01-18T03:03:08.011Z,4.3
2018-01-18T03:04:08.008Z,4.26
2018-01-18T03:05:07.811Z,4.24
2018-01-18T03:06:08.235Z,4.3
2018-01-18T03:07:08.233Z,4.23
2018-01-18T03:08:08.218Z,4.3
2018-01-18T03:09:07.957Z,4.32
2018-01-18T03:10:07.959Z,4.37
2018-01-18T03:11:07.685Z,4.4
2018-01-18T03:12:08.211Z,4.35
2018-01-18T03:13:07.923Z,4.37
2018-01-18T03:14:07.917Z,4.37
2018-01-18T03:15:08.087Z,4.37
2018-01-18T03:16:07.899Z,4.4
2018-01-18T03:17:07.885Z,4.38
2018-01-18T03:18:07.924Z,4.35
2018-01-18T03:19:07.927Z,4.38
2018-01-18T03:20:07.936Z,4.4
2018-01-18T03:21:07.854Z,4.44
2018-01-18T03:22:08.100Z,4.53
2018-01-18T03:23:07.834Z,4.52
2018-01-18T03:24:07.824Z,4.48
2018-01-18T03:25:07.869Z,4.52
2018-01-18T03:26:07.807Z,4.45
2018-01-18T03:27:07.797Z,4.52
2018-01-18T03:28:08.041Z,4.52
2018-01-18T03:29:07.782Z,4.55
2018-01-18T03:30:08.117Z,4.5
2018-01-18T03:31:07.764Z,4.44
2018-01-18T03:32:07.754Z,4.5
2018-01-18T03:33:07.495Z,4.49
2018-01-18T03:34:07.740Z,4.55
2018-01-18T03:35:07.534Z,4.55
2018-01-18T03:36:07.968Z,4.48
2018-01-18T03:37:07.960Z,4.56
2018-01-18T03:38:07.954Z,4.53
2018-01-18T03:39:07.707Z,4.52
2018-01-18T03:40:08.138Z,4.53
2018-01-18T03:41:07.926Z,4.44
2018-01-18T03:42:07.920Z,4.53
2018-01-18T03:43:07.910Z,4.55
2018-01-18T03:44:07.669Z,4.45
2018-01-18T03:45:07.391Z,4.5
2018-01-18T03:46:07.643Z,4.49
2018-01-18T03:47:07.697Z,4.44
2018-01-18T03:48:07.613Z,4.48
2018-01-18T03:49:07.606Z,4.5
2018-01-18T03:50:07.790Z,4.49
2018-01-18T03:51:07.589Z,4.55
2018-01-18T03:52:07.851Z,4.5
2018-01-18T03:53:07.578Z,4.56
2018-01-18T03:54:07.867Z,4.44
2018-01-18T03:55:07.304Z,4.41
2018-01-18T03:56:07.807Z,4.44
2018-01-18T03:57:07.539Z,4.45
2018-01-18T03:58:07.530Z,4.41
2018-01-18T03:59:07.309Z,4.52
2018-01-18T04:00:07.512Z,4.52
2018-01-18T04:01:07.754Z,4.48
2018-01-18T04:02:07.741Z,4.48
2018-01-18T04:03:07.551Z,4.5
2018-01-18T04:04:07.731Z,4.49
2018-01-18T04:05:07.783Z,4.48
2018-01-18T04:06:07.717Z,4.42
2018-01-18T04:07:07.448Z,4.49
2018-01-18T04:08:07.443Z,4.49
2018-01-18T04:09:07.432Z,4.44
2018-01-18T04:10:07.436Z,4.48
2018-01-18T04:11:07.421Z,4.42
2018-01-18T04:12:07.401Z,4.41
2018-01-18T04:13:07.645Z,4.42
2018-01-18T04:14:07.636Z,4.4
2018-01-18T04:15:07.130Z,4.4
2018-01-18T04:16:07.405Z,4.4
2018-01-18T04:17:07.625Z,4.42
2018-01-18T04:18:07.610Z,4.37
2018-01-18T04:19:07.345Z,4.34
2018-01-18T04:20:07.337Z,4.4
2018-01-18T04:21:07.662Z,4.34
2018-01-18T04:22:07.325Z,4.3
2018-01-18T04:23:07.318Z,4.3
2018-01-18T04:24:07.317Z,4.32
2018-01-18T04:25:07.290Z,4.31
2018-01-18T04:26:07.536Z,4.26
2018-01-18T04:27:07.271Z,4.3
2018-01-18T04:28:07.272Z,4.28
2018-01-18T04:29:07.254Z,4.26
2018-01-18T04:30:07.028Z,4.28
2018-01-18T04:31:07.494Z,4.24
2018-01-18T04:32:07.492Z,4.26
2018-01-18T04:33:06.972Z,4.24
2018-01-18T04:34:07.217Z,4.34
2018-01-18T04:35:07.299Z,4.32
2018-01-18T04:36:06.943Z,4.23
2018-01-18T04:37:07.439Z,4.37
2018-01-18T04:38:07.175Z,4.37
2018-01-18T04:39:06.914Z,4.31
2018-01-18T04:40:07.155Z,4.35
2018-01-18T04:41:07.415Z,4.32
2018-01-18T04:42:07.139Z,4.34
2018-01-18T04:43:07.126Z,4.41
2018-01-18T04:44:07.388Z,4.41
2018-01-18T04:45:07.116Z,4.42
2018-01-18T04:46:06.850Z,4.42
2018-01-18T04:47:10.364Z,4.52
2018-01-18T04:48:07.339Z,4.55
2018-01-18T04:49:07.074Z,4.5
2018-01-18T04:50:07.320Z,4.45
2018-01-18T04:51:07.305Z,4.44
2018-01-18T04:52:07.300Z,4.55
2018-01-18T04:53:07.049Z,4.59
2018-01-18T04:54:07.288Z,4.59
2018-01-18T04:55:07.030Z,4.5
2018-01-18T04:56:07.014Z,4.48
2018-01-18T04:57:07.253Z,4.48
2018-01-18T04:58:06.995Z,4.52
2018-01-18T04:59:06.989Z,4.49
2018-01-18T05:00:06.979Z,4.52
2018-01-18T05:01:06.972Z,4.5
2018-01-18T05:02:06.959Z,4.55
2018-01-18T05:03:06.710Z,4.5
2018-01-18T05:04:06.945Z,4.42
2018-01-18T05:05:06.695Z,4.48
2018-01-18T05:06:07.176Z,4.35
2018-01-18T05:07:07.184Z,4.48
2018-01-18T05:08:06.910Z,4.49
2018-01-18T05:09:07.161Z,4.38
2018-01-18T05:10:06.644Z,4.5
2018-01-18T05:11:07.128Z,4.55
2018-01-18T05:12:06.627Z,4.5
2018-01-18T05:13:06.878Z,4.5
2018-01-18T05:14:06.865Z,4.48
2018-01-18T05:15:06.849Z,4.52
2018-01-18T05:16:06.835Z,4.59
2018-01-18T05:17:07.124Z,4.53
2018-01-18T05:18:06.823Z,4.5
2018-01-18T05:19:06.574Z,4.49
2018-01-18T05:20:06.823Z,4.58
2018-01-18T05:21:06.812Z,4.55
2018-01-18T05:22:06.838Z,4.52
2018-01-18T05:23:07.025Z,4.55
2018-01-18T05:24:07.024Z,4.55
2018-01-18T05:25:07.016Z,4.52
2018-01-18T05:26:06.750Z,4.55
2018-01-18T05:27:06.741Z,4.62
2018-01-18T05:28:06.751Z,4.63
2018-01-18T05:29:06.974Z,4.56
2018-01-18T05:30:06.963Z,4.59
2018-01-18T05:31:06.700Z,4.52
2018-01-18T05:32:06.700Z,4.56
2018-01-18T05:33:06.935Z,4.5
2018-01-18T05:34:06.423Z,4.59
2018-01-18T05:35:06.670Z,4.58
2018-01-18T05:36:06.656Z,4.58
2018-01-18T05:37:06.905Z,4.55
2018-01-18T05:38:06.643Z,4.52
2018-01-18T05:39:06.885Z,4.56
2018-01-18T05:40:06.933Z,4.56
2018-01-18T05:41:06.864Z,4.55
2018-01-18T05:42:06.604Z,4.6
2018-01-18T05:43:06.847Z,4.6
2018-01-18T05:44:06.586Z,4.48
2018-01-18T05:45:06.598Z,4.49
2018-01-18T05:46:06.589Z,4.59
2018-01-18T05:47:06.568Z,4.59
2018-01-18T05:48:10.053Z,4.63
2018-01-18T05:49:06.796Z,4.62
2018-01-18T05:50:06.797Z,4.66
2018-01-18T05:51:06.523Z,4.63
2018-01-18T05:52:06.767Z,4.6
2018-01-18T05:53:06.511Z,4.6
2018-01-18T05:54:06.247Z,4.45
2018-01-18T05:55:06.781Z,4.6
2018-01-18T05:56:06.738Z,4.55
2018-01-18T05:57:06.470Z,4.53
2018-01-18T05:58:06.465Z,4.52
2018-01-18T05:59:06.723Z,4.58
2018-01-18T06:00:06.710Z,4.6
2018-01-18T06:01:06.732Z,4.56
2018-01-18T06:02:06.684Z,4.48
2018-01-18T06:03:06.419Z,4.58
2018-01-18T06:04:06.424Z,4.63
2018-01-18T06:05:06.404Z,4.63
2018-01-18T06:06:06.654Z,4.59
2018-01-18T06:07:06.380Z,4.63
2018-01-18T06:08:06.368Z,4.7
2018-01-18T06:09:06.628Z,4.66
2018-01-18T06:10:06.364Z,4.58
2018-01-18T06:11:06.091Z,4.62
2018-01-18T06:12:06.587Z,4.62
2018-01-18T06:13:06.325Z,4.63
2018-01-18T06:14:06.318Z,4.74
2018-01-18T06:15:06.558Z,4.75
2018-01-18T06:16:06.566Z,4.66
2018-01-18T06:17:06.290Z,4.7
2018-01-18T06:18:06.536Z,4.74
2018-01-18T06:19:06.527Z,4.75
2018-01-18T06:20:06.516Z,4.75
2018-01-18T06:21:06.261Z,4.74
2018-01-18T06:22:06.247Z,4.82
2018-01-18T06:23:06.238Z,4.86
2018-01-18T06:24:06.482Z,4.8
2018-01-18T06:25:06.227Z,4.86
2018-01-18T06:26:05.967Z,4.9
2018-01-18T06:27:06.203Z,4.84
2018-01-18T06:28:06.443Z,4.73
2018-01-18T06:29:06.438Z,4.82
2018-01-18T06:30:05.947Z,4.86
2018-01-18T06:31:05.920Z,4.78
2018-01-18T06:32:06.407Z,4.8
2018-01-18T06:33:06.146Z,4.9
2018-01-18T06:34:06.542Z,4.84
2018-01-18T06:35:06.387Z,4.87
2018-01-18T06:36:06.129Z,4.78
2018-01-18T06:37:06.118Z,4.89
2018-01-18T06:38:06.352Z,4.84
2018-01-18T06:39:06.095Z,4.84
2018-01-18T06:40:06.337Z,4.97
2018-01-18T06:41:06.338Z,4.89
2018-01-18T06:42:06.323Z,4.86
2018-01-18T06:43:06.310Z,4.86
2018-01-18T06:44:06.055Z,4.87
2018-01-18T06:45:06.335Z,5
2018-01-18T06:46:05.807Z,4.82
2018-01-18T06:47:06.281Z,4.86
2018-01-18T06:48:06.278Z,4.94
2018-01-18T06:49:06.261Z,4.94
2018-01-18T06:50:06.001Z,4.93
2018-01-18T06:51:06.241Z,4.97
2018-01-18T06:52:05.990Z,4.86
2018-01-18T06:53:06.235Z,4.87
2018-01-18T06:54:06.217Z,4.93
2018-01-18T06:55:05.959Z,4.84
2018-01-18T06:56:06.197Z,4.86
2018-01-18T06:57:06.190Z,4.87
2018-01-18T06:58:06.193Z,4.86
2018-01-18T06:59:06.183Z,4.89
2018-01-18T07:00:06.169Z,4.8
2018-01-18T07:01:06.153Z,4.74
2018-01-18T07:02:06.153Z,4.75
2018-01-18T07:03:06.152Z,4.75
2018-01-18T07:04:06.141Z,4.74
2018-01-18T07:05:06.127Z,4.82
2018-01-18T07:06:06.221Z,4.73
2018-01-18T07:07:06.112Z,4.82
2018-01-18T07:08:06.096Z,4.73
2018-01-18T07:09:06.078Z,4.82
2018-01-18T07:10:05.821Z,4.78
2018-01-18T07:11:05.562Z,4.75
2018-01-18T07:12:05.809Z,4.75
2018-01-18T07:13:05.551Z,4.77
2018-01-18T07:14:06.042Z,4.75
2018-01-18T07:15:05.528Z,4.77
2018-01-18T07:16:05.775Z,4.78
2018-01-18T07:17:05.771Z,4.77
2018-01-18T07:18:06.006Z,4.78
2018-01-18T07:19:07.596Z,4.78
2018-01-18T07:20:05.740Z,4.84
2018-01-18T07:21:05.485Z,4.8
2018-01-18T07:22:05.729Z,4.78
2018-01-18T07:23:05.713Z,4.82
2018-01-18T07:24:05.449Z,4.89
2018-01-18T07:25:05.947Z,4.94
2018-01-18T07:26:05.684Z,4.93
2018-01-18T07:27:05.426Z,4.97
2018-01-18T07:28:05.688Z,4.86
2018-01-18T07:29:05.906Z,4.94
2018-01-18T07:30:05.691Z,4.89
2018-01-18T07:31:05.888Z,4.89
2018-01-18T07:32:05.892Z,4.93
2018-01-18T07:33:05.626Z,4.86
2018-01-18T07:34:05.367Z,4.9
2018-01-18T07:35:05.884Z,4.94
2018-01-18T07:36:05.849Z,4.89
2018-01-18T07:37:05.600Z,4.92
2018-01-18T07:38:05.837Z,4.87
2018-01-18T07:39:05.586Z,4.89
2018-01-18T07:40:05.569Z,5.02
2018-01-18T07:41:05.569Z,4.9
2018-01-18T07:42:05.794Z,4.9
2018-01-18T07:43:05.557Z,4.93
2018-01-18T07:44:05.780Z,5
2018-01-18T07:45:05.777Z,4.94
2018-01-18T07:46:05.762Z,4.99
2018-01-18T07:47:05.500Z,5
2018-01-18T07:48:05.743Z,4.96
2018-01-18T07:49:07.344Z,4.96
2018-01-18T07:50:05.744Z,4.99
2018-01-18T07:51:05.475Z,5.04
2018-01-18T07:52:05.451Z,5.1
2018-01-18T07:53:05.718Z,5.11
2018-01-18T07:54:05.439Z,5.08
2018-01-18T07:55:05.437Z,5.02
2018-01-18T07:56:05.430Z,5.08
2018-01-18T07:57:05.418Z,5.1
2018-01-18T07:58:05.399Z,5.07
2018-01-18T07:59:05.393Z,5.05
2018-01-18T08:00:05.637Z,5.1
2018-01-18T08:01:05.383Z,5.1
2018-01-18T08:02:05.620Z,5.12
2018-01-18T08:03:05.103Z,5.12
2018-01-18T08:04:05.347Z,5.14
2018-01-18T08:05:05.333Z,5.18
2018-01-18T08:06:05.334Z,5.17
2018-01-18T08:07:05.583Z,5.26
2018-01-18T08:08:05.304Z,5.26
2018-01-18T08:09:05.292Z,5.29
2018-01-18T08:10:05.290Z,5.29
2018-01-18T08:11:05.275Z,5.29
2018-01-18T08:12:05.275Z,5.25
2018-01-18T08:13:05.014Z,5.33
2018-01-18T08:14:05.253Z,5.3
2018-01-18T08:15:05.499Z,5.39
2018-01-18T08:16:05.235Z,5.32
2018-01-18T08:17:05.482Z,5.41
2018-01-18T08:18:05.463Z,5.32
2018-01-18T08:19:04.960Z,5.39
2018-01-18T08:20:05.201Z,5.48
2018-01-18T08:21:05.441Z,5.46
2018-01-18T08:22:05.191Z,5.47
2018-01-18T08:23:05.174Z,5.48
2018-01-18T08:24:05.418Z,5.53
2018-01-18T08:25:05.408Z,5.51
2018-01-18T08:26:05.398Z,5.54
2018-01-18T08:27:05.132Z,5.57
2018-01-18T08:28:05.380Z,5.47
2018-01-18T08:29:05.378Z,5.56
2018-01-18T08:30:05.360Z,5.62
2018-01-18T08:31:05.102Z,5.65
2018-01-18T08:32:05.091Z,5.62
2018-01-18T08:33:05.344Z,5.65
2018-01-18T08:34:05.074Z,5.65
2018-01-18T08:35:05.073Z,5.75
2018-01-18T08:36:05.071Z,5.65
2018-01-18T08:38:05.040Z,5.79
2018-01-18T08:39:05.046Z,5.75
2018-01-18T08:40:05.279Z,5.8
2018-01-18T08:41:05.270Z,5.8
2018-01-18T08:42:05.260Z,5.82
2018-01-18T08:43:05.251Z,5.84
2018-01-18T08:44:04.998Z,5.79
2018-01-18T08:45:05.240Z,5.86
2018-01-18T08:46:04.975Z,5.8
2018-01-18T08:47:05.221Z,5.83
2018-01-18T08:48:05.211Z,5.82
2018-01-18T08:49:04.948Z,5.84
2018-01-18T08:50:04.945Z,5.8
2018-01-18T08:51:04.935Z,5.9
2018-01-18T08:52:04.931Z,5.93
2018-01-18T08:53:05.173Z,5.87
2018-01-18T08:54:04.911Z,5.9
2018-01-18T08:55:04.661Z,5.93
2018-01-18T08:56:05.151Z,5.93
2018-01-18T08:57:04.643Z,5.94
2018-01-18T08:58:05.135Z,5.99
2018-01-18T08:59:04.876Z,6.14
2018-01-18T09:00:05.127Z,6.12
2018-01-18T09:01:04.859Z,6.12
2018-01-18T09:02:05.102Z,6.01
2018-01-18T09:03:04.846Z,5.99
2018-01-18T09:04:05.090Z,5.94
2018-01-18T09:05:05.095Z,5.94
2018-01-18T09:06:05.088Z,6.08
2018-01-18T09:07:05.065Z,6.12
2018-01-18T09:08:04.799Z,6.22
2018-01-18T09:09:04.794Z,6.12
2018-01-18T09:10:05.038Z,6.19
2018-01-18T09:11:05.036Z,6.28
2018-01-18T09:12:05.028Z,6.22
2018-01-18T09:13:04.762Z,6.24
2018-01-18T09:14:04.754Z,6.3
2018-01-18T09:15:04.750Z,6.28
2018-01-18T09:16:04.991Z,6.36
2018-01-18T09:17:04.730Z,6.38
2018-01-18T09:18:04.727Z,6.41
2018-01-18T09:19:04.714Z,6.35
2018-01-18T09:20:04.715Z,6.45
2018-01-18T09:21:04.958Z,6.42
2018-01-18T09:22:04.946Z,6.49
2018-01-18T09:23:04.936Z,6.54
2018-01-18T09:24:04.931Z,6.48
2018-01-18T09:25:04.677Z,6.62
2018-01-18T09:26:04.924Z,6.6
2018-01-18T09:27:04.929Z,6.63
2018-01-18T09:28:04.707Z,6.62
2018-01-18T09:29:04.911Z,6.69
2018-01-18T09:30:04.666Z,6.59
2018-01-18T09:31:04.642Z,6.74
2018-01-18T09:32:04.916Z,6.7
2018-01-18T09:33:04.872Z,6.79
2018-01-18T09:34:04.706Z,6.85
2018-01-18T09:35:04.859Z,6.88
2018-01-18T09:36:04.622Z,6.93
2018-01-18T09:37:04.843Z,6.92
2018-01-18T09:38:04.833Z,6.93
2018-01-18T09:39:04.825Z,6.99
2018-01-18T09:40:04.827Z,7.05
2018-01-18T09:41:04.814Z,7.07
2018-01-18T09:42:04.811Z,7.11
2018-01-18T09:43:04.807Z,7
2018-01-18T09:44:04.807Z,7.02
2018-01-18T09:45:04.812Z,7.06
2018-01-18T09:46:04.527Z,7.07
2018-01-18T09:47:04.521Z,7.29
2018-01-18T09:48:04.769Z,7.33
2018-01-18T09:49:04.766Z,7.36
2018-01-18T09:50:05.469Z,7.43
2018-01-18T09:51:04.759Z,7.48
2018-01-18T09:52:05.517Z,7.47
2018-01-18T09:53:04.951Z,7.54
2018-01-18T09:54:04.883Z,7.63
2018-01-18T09:55:04.482Z,7.57
2018-01-18T09:56:04.463Z,7.58
2018-01-18T09:57:04.460Z,7.61
2018-01-18T09:58:04.212Z,7.72
2018-01-18T09:59:04.455Z,7.7
2018-01-18T10:00:04.700Z,7.66
2018-01-18T10:01:04.718Z,7.79
2018-01-18T10:02:04.686Z,7.85
2018-01-18T10:03:04.692Z,7.88
2018-01-18T10:04:04.672Z,8
2018-01-18T10:05:04.684Z,7.88
2018-01-18T10:06:04.657Z,7.93
2018-01-18T10:07:04.399Z,7.97
2018-01-18T10:08:04.400Z,8
2018-01-18T10:09:04.404Z,8.03
2018-01-18T10:10:04.649Z,8.09
2018-01-18T10:11:04.381Z,8.19
2018-01-18T10:12:04.367Z,8.18
2018-01-18T10:13:04.359Z,8.18
2018-01-18T10:14:04.107Z,8.15
2018-01-18T10:15:04.352Z,8.2
2018-01-18T10:16:04.600Z,8.26
2018-01-18T10:17:04.590Z,8.31
2018-01-18T10:18:04.081Z,8.37
2018-01-18T10:19:04.337Z,8.41
2018-01-18T10:20:05.729Z,8.52
2018-01-18T10:21:04.567Z,8.55
2018-01-18T10:22:04.311Z,8.55
2018-01-18T10:23:04.059Z,8.66
2018-01-18T10:52:38.319Z,8.91
2018-01-18T10:53:38.312Z,8.99
2018-01-18T10:54:38.552Z,8.91
2018-01-18T10:55:38.543Z,8.88
2018-01-18T10:56:38.541Z,8.97
2018-01-18T10:57:38.305Z,8.95
2018-01-18T10:58:38.255Z,9.06
2018-01-18T10:59:38.501Z,9.14
2018-01-18T11:00:38.242Z,9.18
2018-01-18T11:01:38.244Z,9.11
2018-01-18T11:02:38.501Z,9.02
2018-01-18T11:03:38.220Z,9.13
2018-01-18T11:04:38.496Z,9.21
2018-01-18T11:05:38.233Z,9.18
2018-01-18T11:06:38.504Z,9.14
2018-01-18T11:07:38.445Z,9.08
2018-01-18T11:08:38.192Z,9.19
2018-01-18T11:09:38.191Z,9.19
2018-01-18T11:10:38.185Z,9.22
2018-01-18T11:11:37.926Z,9.19
2018-01-18T11:12:38.164Z,9.25
2018-01-18T11:13:38.160Z,9.28
2018-01-18T11:14:37.961Z,9.32
2018-01-18T11:15:38.147Z,9.25
2018-01-18T11:16:38.424Z,9.39
2018-01-18T11:17:38.446Z,9.29
2018-01-18T11:18:38.135Z,9.28
2018-01-18T11:19:38.129Z,9.29
2018-01-18T11:20:38.127Z,9.32
2018-01-18T11:21:38.377Z,9.34
2018-01-18T11:22:38.368Z,9.43
2018-01-18T11:23:38.117Z,9.31
2018-01-18T11:24:38.106Z,9.36
2018-01-18T11:25:38.353Z,9.34
2018-01-18T11:26:38.125Z,9.36
2018-01-18T11:27:37.849Z,9.32
2018-01-18T11:28:37.843Z,9.39
2018-01-18T11:29:38.092Z,9.36
2018-01-18T11:30:37.826Z,9.41
2018-01-18T11:31:37.846Z,9.55
2018-01-18T11:32:38.318Z,9.55
2018-01-18T11:33:38.062Z,9.55
2018-01-18T11:34:38.310Z,9.64
2018-01-18T11:35:38.064Z,9.69
2018-01-18T11:36:38.072Z,9.77
2018-01-18T11:37:38.049Z,9.82
2018-01-18T11:38:38.045Z,9.73
2018-01-18T11:39:38.053Z,9.83
2018-01-18T11:40:38.290Z,9.72
2018-01-18T11:41:37.812Z,9.77
2018-01-18T11:42:38.279Z,9.76
2018-01-18T11:43:37.773Z,9.73
2018-01-18T11:44:38.040Z,9.58
2018-01-18T11:45:38.094Z,9.61
2018-01-18T11:46:38.256Z,9.66
2018-01-18T11:47:37.999Z,9.61
2018-01-18T11:48:37.759Z,9.74
2018-01-18T11:49:38.305Z,9.69
2018-01-18T11:50:38.247Z,9.76
2018-01-18T11:51:38.001Z,9.74
2018-01-18T11:52:38.503Z,9.76
2018-01-18T11:53:38.223Z,9.79
2018-01-18T11:54:38.218Z,9.72
2018-01-18T11:55:37.974Z,9.68
2018-01-18T11:56:38.216Z,9.65
2018-01-18T11:57:38.212Z,9.66
2018-01-18T11:58:37.715Z,9.73
2018-01-18T11:59:37.953Z,9.77
2018-01-18T12:00:38.195Z,9.68
2018-01-18T12:01:37.974Z,9.82
2018-01-18T12:02:38.196Z,9.79
2018-01-18T12:03:37.933Z,9.83
2018-01-18T12:04:37.925Z,9.72
2018-01-18T12:05:37.918Z,9.79
2018-01-18T12:06:38.165Z,9.82
2018-01-18T12:07:37.675Z,9.76
2018-01-18T12:08:37.907Z,9.89
2018-01-18T12:09:37.662Z,9.87
2018-01-18T12:10:37.906Z,9.83
2018-01-18T12:11:38.157Z,9.86
2018-01-18T12:12:38.140Z,9.87
2018-01-18T12:13:37.886Z,9.86
2018-01-18T12:14:38.207Z,9.87
2018-01-18T12:15:37.882Z,9.84
2018-01-18T12:16:37.877Z,9.89
2018-01-18T12:17:37.865Z,9.86
2018-01-18T12:18:37.866Z,9.87
2018-01-18T12:19:38.112Z,9.91
2018-01-18T12:20:37.855Z,9.87
2018-01-18T12:21:38.121Z,9.89
2018-01-18T12:22:37.850Z,9.84
2018-01-18T12:23:37.856Z,9.87
2018-01-18T12:24:37.592Z,9.92
2018-01-18T12:25:37.833Z,9.89
2018-01-18T12:26:37.848Z,9.89
2018-01-18T12:27:38.270Z,9.91
2018-01-18T12:28:37.566Z,9.83
2018-01-18T12:29:38.072Z,9.89
2018-01-18T12:30:37.816Z,9.89
2018-01-18T12:31:37.812Z,9.87
2018-01-18T12:32:38.067Z,9.87
2018-01-18T12:33:37.547Z,9.83
2018-01-18T12:34:38.056Z,9.89
2018-01-18T12:35:38.051Z,9.89
2018-01-18T12:36:38.062Z,9.95
2018-01-18T12:37:38.038Z,9.89
2018-01-18T12:38:37.768Z,9.86
2018-01-18T12:39:38.037Z,9.82
2018-01-18T12:40:37.770Z,9.89
2018-01-18T12:41:37.518Z,9.84
2018-01-18T12:42:37.751Z,9.95
2018-01-18T12:43:38.007Z,9.92
2018-01-18T12:44:37.996Z,9.99
2018-01-18T12:45:38.010Z,9.98
2018-01-18T12:46:37.744Z,9.95
2018-01-18T12:47:37.740Z,10.05
2018-01-18T12:48:37.735Z,10.05
2018-01-18T12:49:37.994Z,10.2
2018-01-18T12:50:37.991Z,10.17
2018-01-18T12:51:38.001Z,10.19
2018-01-18T12:52:39.569Z,10.07
2018-01-18T12:53:37.454Z,10.17
2018-01-18T12:54:37.449Z,10.13
2018-01-18T12:55:37.955Z,10.17
2018-01-18T12:56:37.954Z,10.26
2018-01-18T12:57:37.838Z,10.37
2018-01-18T12:58:37.687Z,10.41
2018-01-18T12:59:37.945Z,10.44
2018-01-18T13:00:37.715Z,10.37
2018-01-18T13:01:37.697Z,10.42
2018-01-18T13:02:37.935Z,10.46
2018-01-18T13:03:37.960Z,10.53
2018-01-18T13:04:37.660Z,10.54
2018-01-18T13:05:37.653Z,10.59
2018-01-18T13:06:37.663Z,10.57
2018-01-18T13:07:37.652Z,10.57
2018-01-18T13:08:37.897Z,10.59
2018-01-18T13:09:37.642Z,10.64
2018-01-18T13:10:37.652Z,10.57
2018-01-18T13:11:37.639Z,10.56
2018-01-18T13:12:37.378Z,10.56
2018-01-18T13:13:37.641Z,10.6
2018-01-18T13:14:37.383Z,10.61
2018-01-18T13:15:37.889Z,10.67
2018-01-18T13:16:37.643Z,10.78
2018-01-18T13:17:37.639Z,10.75
2018-01-18T13:18:37.611Z,10.74
2018-01-18T13:19:37.610Z,10.67
2018-01-18T13:20:37.349Z,10.63
2018-01-18T13:21:37.922Z,10.61
2018-01-18T13:22:37.843Z,10.51
2018-01-18T13:23:37.348Z,10.34
2018-01-18T13:24:37.588Z,10.35
2018-01-18T13:25:37.602Z,10.31
2018-01-18T13:26:37.838Z,10.26
2018-01-18T13:27:37.721Z,10.28
2018-01-18T13:28:37.321Z,10.22
2018-01-18T13:29:37.843Z,10.15
2018-01-18T13:30:37.816Z,10.23
2018-01-18T13:31:37.580Z,10.26
2018-01-18T13:32:37.316Z,10.31
2018-01-18T13:33:37.803Z,10.26
2018-01-18T13:34:37.795Z,10.33
2018-01-18T13:35:37.800Z,10.35
2018-01-18T13:36:37.552Z,10.35
2018-01-18T13:37:37.790Z,10.28
2018-01-18T13:38:37.783Z,10.3
2018-01-18T13:39:37.530Z,10.33
2018-01-18T13:40:37.523Z,10.37
2018-01-18T13:41:37.528Z,10.38
2018-01-18T13:42:37.778Z,10.37
2018-01-18T13:43:37.791Z,10.31
2018-01-18T13:44:37.773Z,10.37
2018-01-18T13:45:37.503Z,10.33
2018-01-18T13:46:37.770Z,10.15
2018-01-18T13:47:37.491Z,10.16
2018-01-18T13:48:37.487Z,10.09